sensor_id;sensor_type;location;lat;lon;timestamp;pressure;altitude;pressure_sealevel;temperature
18713;BMP280;9485;49.386;8.674;2022-08-14T00:03:38;99916.25;;;27.60
18713;BMP280;9485;49.386;8.674;2022-08-14T00:08:58;99899.66;;;27.60
18713;BMP280;9485;49.386;8.674;2022-08-14T00:14:21;99878.56;;;27.60
18713;BMP280;9485;49.386;8.674;2022-08-14T00:19:41;99879.06;;;27.56
18713;BMP280;9485;49.386;8.674;2022-08-14T00:25:02;99883.84;;;27.52
18713;BMP280;9485;49.386;8.674;2022-08-14T00:30:24;99864.66;;;27.47
18713;BMP280;9485;49.386;8.674;2022-08-14T00:35:45;99854.94;;;27.42
18713;BMP280;9485;49.386;8.674;2022-08-14T00:41:07;99850.41;;;27.39
18713;BMP280;9485;49.386;8.674;2022-08-14T00:46:30;99854.56;;;27.36
18713;BMP280;9485;49.386;8.674;2022-08-14T00:51:50;99854.94;;;27.31
18713;BMP280;9485;49.386;8.674;2022-08-14T00:57:11;99851.63;;;27.25
18713;BMP280;9485;49.386;8.674;2022-08-14T01:02:35;99844.06;;;27.20
18713;BMP280;9485;49.386;8.674;2022-08-14T01:07:57;99841.41;;;27.13
18713;BMP280;9485;49.386;8.674;2022-08-14T01:13:22;99841.13;;;27.09
18713;BMP280;9485;49.386;8.674;2022-08-14T01:18:45;99829.91;;;27.03
18713;BMP280;9485;49.386;8.674;2022-08-14T01:24:25;99828.47;;;26.93
18713;BMP280;9485;49.386;8.674;2022-08-14T01:29:49;99818.75;;;26.88
18713;BMP280;9485;49.386;8.674;2022-08-14T01:35:10;99812.66;;;26.84
18713;BMP280;9485;49.386;8.674;2022-08-14T01:40:32;99794.63;;;26.74
18713;BMP280;9485;49.386;8.674;2022-08-14T01:45:52;99781.75;;;26.66
18713;BMP280;9485;49.386;8.674;2022-08-14T01:51:16;99764.59;;;26.58
18713;BMP280;9485;49.386;8.674;2022-08-14T01:56:41;99759.38;;;26.46
18713;BMP280;9485;49.386;8.674;2022-08-14T02:02:07;99777.09;;;26.40
18713;BMP280;9485;49.386;8.674;2022-08-14T02:07:30;99765.09;;;26.34
18713;BMP280;9485;49.386;8.674;2022-08-14T02:12:52;99773.63;;;26.32
18713;BMP280;9485;49.386;8.674;2022-08-14T02:18:13;99766.19;;;26.29
18713;BMP280;9485;49.386;8.674;2022-08-14T02:23:34;99763.91;;;26.28
18713;BMP280;9485;49.386;8.674;2022-08-14T02:29:00;99777.63;;;26.27
18713;BMP280;9485;49.386;8.674;2022-08-14T02:34:25;99753.72;;;26.27
18713;BMP280;9485;49.386;8.674;2022-08-14T02:39:47;99750.69;;;26.25
18713;BMP280;9485;49.386;8.674;2022-08-14T02:45:10;99753.44;;;26.23
18713;BMP280;9485;49.386;8.674;2022-08-14T02:50:31;99756.81;;;26.19
18713;BMP280;9485;49.386;8.674;2022-08-14T02:55:58;99754.00;;;26.10
18713;BMP280;9485;49.386;8.674;2022-08-14T03:01:22;99747.25;;;25.96
18713;BMP280;9485;49.386;8.674;2022-08-14T03:06:45;99732.94;;;25.77
18713;BMP280;9485;49.386;8.674;2022-08-14T03:12:06;99753.09;;;25.56
18713;BMP280;9485;49.386;8.674;2022-08-14T03:17:28;99756.22;;;25.39
18713;BMP280;9485;49.386;8.674;2022-08-14T03:22:48;99763.13;;;25.25
18713;BMP280;9485;49.386;8.674;2022-08-14T03:28:09;99782.47;;;25.13
18713;BMP280;9485;49.386;8.674;2022-08-14T03:33:31;99782.47;;;25.03
18713;BMP280;9485;49.386;8.674;2022-08-14T03:38:55;99774.28;;;24.91
18713;BMP280;9485;49.386;8.674;2022-08-14T03:44:17;99771.88;;;24.78
18713;BMP280;9485;49.386;8.674;2022-08-14T03:49:39;99762.94;;;24.64
18713;BMP280;9485;49.386;8.674;2022-08-14T03:55:04;99760.34;;;24.49
18713;BMP280;9485;49.386;8.674;2022-08-14T04:00:24;99757.63;;;24.32
18713;BMP280;9485;49.386;8.674;2022-08-14T04:05:46;99751.97;;;24.16
18713;BMP280;9485;49.386;8.674;2022-08-14T04:11:07;99754.41;;;24.00
18713;BMP280;9485;49.386;8.674;2022-08-14T04:16:28;99751.97;;;23.87
18713;BMP280;9485;49.386;8.674;2022-08-14T04:21:50;99759.25;;;23.79
18713;BMP280;9485;49.386;8.674;2022-08-14T04:27:11;99745.38;;;23.68
18713;BMP280;9485;49.386;8.674;2022-08-14T04:32:33;99751.84;;;23.59
18713;BMP280;9485;49.386;8.674;2022-08-14T04:37:56;99759.44;;;23.54
18713;BMP280;9485;49.386;8.674;2022-08-14T04:43:34;99754.56;;;23.48
18713;BMP280;9485;49.386;8.674;2022-08-14T04:48:59;99765.94;;;23.46
18713;BMP280;9485;49.386;8.674;2022-08-14T04:54:21;99767.72;;;23.41
18713;BMP280;9485;49.386;8.674;2022-08-14T04:59:44;99767.56;;;23.39
18713;BMP280;9485;49.386;8.674;2022-08-14T05:05:06;99768.91;;;23.38
18713;BMP280;9485;49.386;8.674;2022-08-14T05:10:28;99767.41;;;23.37
18713;BMP280;9485;49.386;8.674;2022-08-14T05:15:50;99776.97;;;23.40
18713;BMP280;9485;49.386;8.674;2022-08-14T05:21:12;99767.28;;;23.45
18713;BMP280;9485;49.386;8.674;2022-08-14T05:26:34;99750.47;;;23.50
18713;BMP280;9485;49.386;8.674;2022-08-14T05:31:58;99743.38;;;23.61
18713;BMP280;9485;49.386;8.674;2022-08-14T05:37:25;99744.91;;;23.71
18713;BMP280;9485;49.386;8.674;2022-08-14T05:42:48;99754.38;;;23.81
18713;BMP280;9485;49.386;8.674;2022-08-14T05:48:14;99760.31;;;23.93
18713;BMP280;9485;49.386;8.674;2022-08-14T05:53:35;99746.22;;;24.06
18713;BMP280;9485;49.386;8.674;2022-08-14T05:58:57;99749.56;;;24.22
18713;BMP280;9485;49.386;8.674;2022-08-14T06:04:18;99747.59;;;24.33
18713;BMP280;9485;49.386;8.674;2022-08-14T06:09:40;99734.38;;;24.49
18713;BMP280;9485;49.386;8.674;2022-08-14T06:15:03;99735.75;;;24.67
18713;BMP280;9485;49.386;8.674;2022-08-14T06:20:25;99732.66;;;24.84
18713;BMP280;9485;49.386;8.674;2022-08-14T06:25:45;99733.38;;;25.03
18713;BMP280;9485;49.386;8.674;2022-08-14T06:31:07;99738.50;;;25.24
18713;BMP280;9485;49.386;8.674;2022-08-14T06:36:29;99715.59;;;25.37
18713;BMP280;9485;49.386;8.674;2022-08-14T06:41:50;99708.22;;;25.55
18713;BMP280;9485;49.386;8.674;2022-08-14T06:47:12;99691.97;;;25.81
18713;BMP280;9485;49.386;8.674;2022-08-14T06:52:33;99686.56;;;26.60
18713;BMP280;9485;49.386;8.674;2022-08-14T06:57:54;99680.97;;;28.24
18713;BMP280;9485;49.386;8.674;2022-08-14T07:03:16;99676.75;;;29.80
18713;BMP280;9485;49.386;8.674;2022-08-14T07:08:57;99689.63;;;31.50
18713;BMP280;9485;49.386;8.674;2022-08-14T07:14:18;99693.78;;;33.11
18713;BMP280;9485;49.386;8.674;2022-08-14T07:19:40;99698.66;;;34.62
18713;BMP280;9485;49.386;8.674;2022-08-14T07:25:00;99699.53;;;35.81
18713;BMP280;9485;49.386;8.674;2022-08-14T07:30:22;99700.69;;;36.78
18713;BMP280;9485;49.386;8.674;2022-08-14T07:35:44;99685.00;;;37.61
18713;BMP280;9485;49.386;8.674;2022-08-14T07:41:06;99702.59;;;38.28
18713;BMP280;9485;49.386;8.674;2022-08-14T07:46:27;99723.75;;;38.99
18713;BMP280;9485;49.386;8.674;2022-08-14T07:51:49;99716.63;;;39.63
18713;BMP280;9485;49.386;8.674;2022-08-14T07:57:10;99715.81;;;40.15
18713;BMP280;9485;49.386;8.674;2022-08-14T08:02:31;99718.66;;;40.73
18713;BMP280;9485;49.386;8.674;2022-08-14T08:07:53;99715.13;;;40.92
18713;BMP280;9485;49.386;8.674;2022-08-14T08:13:17;99712.91;;;40.94
18713;BMP280;9485;49.386;8.674;2022-08-14T08:18:37;99719.75;;;41.17
18713;BMP280;9485;49.386;8.674;2022-08-14T08:23:59;99712.44;;;41.30
18713;BMP280;9485;49.386;8.674;2022-08-14T08:29:22;99708.19;;;41.57
18713;BMP280;9485;49.386;8.674;2022-08-14T08:34:44;99705.09;;;41.39
18713;BMP280;9485;49.386;8.674;2022-08-14T08:40:08;99702.78;;;41.23
18713;BMP280;9485;49.386;8.674;2022-08-14T08:45:29;99696.81;;;41.19
18713;BMP280;9485;49.386;8.674;2022-08-14T08:50:50;99686.56;;;41.32
18713;BMP280;9485;49.386;8.674;2022-08-14T08:56:12;99672.63;;;41.55
18713;BMP280;9485;49.386;8.674;2022-08-14T09:01:32;99666.88;;;42.14
18713;BMP280;9485;49.386;8.674;2022-08-14T09:06:54;99672.19;;;42.77
18713;BMP280;9485;49.386;8.674;2022-08-14T09:12:18;99659.53;;;43.03
18713;BMP280;9485;49.386;8.674;2022-08-14T09:17:41;99651.38;;;42.91
18713;BMP280;9485;49.386;8.674;2022-08-14T09:23:03;99651.38;;;42.95
18713;BMP280;9485;49.386;8.674;2022-08-14T09:28:25;99644.63;;;43.24
18713;BMP280;9485;49.386;8.674;2022-08-14T09:34:00;99636.53;;;42.34
18713;BMP280;9485;49.386;8.674;2022-08-14T09:39:40;99644.59;;;41.95
18713;BMP280;9485;49.386;8.674;2022-08-14T09:45:14;99623.78;;;41.79
18713;BMP280;9485;49.386;8.674;2022-08-14T09:50:46;99621.53;;;41.72
18713;BMP280;9485;49.386;8.674;2022-08-14T09:56:08;99627.41;;;41.56
18713;BMP280;9485;49.386;8.674;2022-08-14T10:01:35;99634.09;;;41.60
18713;BMP280;9485;49.386;8.674;2022-08-14T10:06:58;99632.66;;;41.73
18713;BMP280;9485;49.386;8.674;2022-08-14T10:12:19;99628.97;;;41.77
18713;BMP280;9485;49.386;8.674;2022-08-14T10:17:41;99617.22;;;42.07
18713;BMP280;9485;49.386;8.674;2022-08-14T10:23:11;99609.06;;;42.09
18713;BMP280;9485;49.386;8.674;2022-08-14T10:28:40;99592.69;;;41.84
18713;BMP280;9485;49.386;8.674;2022-08-14T10:34:06;99583.78;;;41.86
18713;BMP280;9485;49.386;8.674;2022-08-14T10:39:27;99577.16;;;42.18
18713;BMP280;9485;49.386;8.674;2022-08-14T10:44:48;99566.03;;;42.14
18713;BMP280;9485;49.386;8.674;2022-08-14T10:50:11;99549.72;;;42.29
18713;BMP280;9485;49.386;8.674;2022-08-14T10:55:35;99521.56;;;42.26
18713;BMP280;9485;49.386;8.674;2022-08-14T11:00:59;99509.63;;;41.78
18713;BMP280;9485;49.386;8.674;2022-08-14T11:06:25;99512.66;;;41.96
18713;BMP280;9485;49.386;8.674;2022-08-14T11:11:46;99497.78;;;41.80
18713;BMP280;9485;49.386;8.674;2022-08-14T11:17:07;99490.25;;;41.18
18713;BMP280;9485;49.386;8.674;2022-08-14T11:22:31;99484.84;;;40.75
18713;BMP280;9485;49.386;8.674;2022-08-14T11:27:54;99486.19;;;40.56
18713;BMP280;9485;49.386;8.674;2022-08-14T11:33:15;99493.88;;;41.02
18713;BMP280;9485;49.386;8.674;2022-08-14T11:38:38;99485.13;;;41.38
18713;BMP280;9485;49.386;8.674;2022-08-14T11:44:00;99501.38;;;41.33
18713;BMP280;9485;49.386;8.674;2022-08-14T11:49:25;99490.94;;;41.12
18713;BMP280;9485;49.386;8.674;2022-08-14T11:54:56;99486.88;;;40.46
18713;BMP280;9485;49.386;8.674;2022-08-14T12:00:17;99482.28;;;40.23
18713;BMP280;9485;49.386;8.674;2022-08-14T12:05:39;99476.59;;;40.57
18713;BMP280;9485;49.386;8.674;2022-08-14T12:11:05;99464.78;;;40.63
18713;BMP280;9485;49.386;8.674;2022-08-14T12:16:26;99455.25;;;40.75
18713;BMP280;9485;49.386;8.674;2022-08-14T12:21:50;99432.38;;;40.95
18713;BMP280;9485;49.386;8.674;2022-08-14T12:27:12;99417.75;;;41.51
18713;BMP280;9485;49.386;8.674;2022-08-14T12:32:41;99416.28;;;41.54
18713;BMP280;9485;49.386;8.674;2022-08-14T12:38:02;99405.13;;;41.30
18713;BMP280;9485;49.386;8.674;2022-08-14T12:43:24;99391.81;;;41.63
18713;BMP280;9485;49.386;8.674;2022-08-14T12:48:45;99388.13;;;41.57
18713;BMP280;9485;49.386;8.674;2022-08-14T12:54:14;99386.63;;;41.67
18713;BMP280;9485;49.386;8.674;2022-08-14T12:59:37;99365.91;;;41.59
18713;BMP280;9485;49.386;8.674;2022-08-14T13:04:57;99359.97;;;41.95
18713;BMP280;9485;49.386;8.674;2022-08-14T13:10:20;99373.06;;;42.78
18713;BMP280;9485;49.386;8.674;2022-08-14T13:15:43;99358.56;;;43.40
18713;BMP280;9485;49.386;8.674;2022-08-14T13:21:05;99344.59;;;44.06
18713;BMP280;9485;49.386;8.674;2022-08-14T13:26:31;99346.03;;;44.72
18713;BMP280;9485;49.386;8.674;2022-08-14T13:31:55;99337.94;;;45.18
18713;BMP280;9485;49.386;8.674;2022-08-14T13:37:17;99331.84;;;45.26
18713;BMP280;9485;49.386;8.674;2022-08-14T13:42:43;99328.84;;;44.78
18713;BMP280;9485;49.386;8.674;2022-08-14T13:48:05;99313.69;;;44.96
18713;BMP280;9485;49.386;8.674;2022-08-14T13:53:26;99314.38;;;45.02
18713;BMP280;9485;49.386;8.674;2022-08-14T13:58:48;99296.53;;;44.44
18713;BMP280;9485;49.386;8.674;2022-08-14T14:04:14;99290.56;;;43.80
18713;BMP280;9485;49.386;8.674;2022-08-14T14:09:38;99276.03;;;43.48
18713;BMP280;9485;49.386;8.674;2022-08-14T14:14:59;99268.78;;;43.29
18713;BMP280;9485;49.386;8.674;2022-08-14T14:20:21;99271.09;;;43.19
18713;BMP280;9485;49.386;8.674;2022-08-14T14:25:54;99267.13;;;42.42
18713;BMP280;9485;49.386;8.674;2022-08-14T14:31:19;99251.72;;;41.92
18713;BMP280;9485;49.386;8.674;2022-08-14T14:36:43;99256.16;;;41.85
18713;BMP280;9485;49.386;8.674;2022-08-14T14:42:06;99251.81;;;41.62
18713;BMP280;9485;49.386;8.674;2022-08-14T14:47:28;99243.69;;;41.17
18713;BMP280;9485;49.386;8.674;2022-08-14T14:52:49;99233.31;;;40.86
18713;BMP280;9485;49.386;8.674;2022-08-14T14:58:14;99245.06;;;40.57
18713;BMP280;9485;49.386;8.674;2022-08-14T15:03:38;99238.22;;;40.00
18713;BMP280;9485;49.386;8.674;2022-08-14T15:09:01;99225.25;;;39.38
18713;BMP280;9485;49.386;8.674;2022-08-14T15:14:24;99217.53;;;38.96
18713;BMP280;9485;49.386;8.674;2022-08-14T15:19:44;99232.00;;;38.64
18713;BMP280;9485;49.386;8.674;2022-08-14T15:25:09;99226.56;;;38.40
18713;BMP280;9485;49.386;8.674;2022-08-14T15:30:32;99223.16;;;38.03
18713;BMP280;9485;49.386;8.674;2022-08-14T15:35:53;99228.59;;;37.69
18713;BMP280;9485;49.386;8.674;2022-08-14T15:41:13;99212.72;;;37.41
18713;BMP280;9485;49.386;8.674;2022-08-14T15:46:37;99214.59;;;37.20
18713;BMP280;9485;49.386;8.674;2022-08-14T15:51:57;99216.63;;;37.10
18713;BMP280;9485;49.386;8.674;2022-08-14T15:57:18;99215.13;;;37.07
18713;BMP280;9485;49.386;8.674;2022-08-14T16:02:41;99208.41;;;37.00
18713;BMP280;9485;49.386;8.674;2022-08-14T16:08:05;99211.84;;;36.87
18713;BMP280;9485;49.386;8.674;2022-08-14T16:13:27;99209.28;;;36.68
18713;BMP280;9485;49.386;8.674;2022-08-14T16:18:51;99205.78;;;36.38
18713;BMP280;9485;49.386;8.674;2022-08-14T16:24:16;99203.69;;;36.07
18713;BMP280;9485;49.386;8.674;2022-08-14T16:29:41;99202.31;;;35.77
18713;BMP280;9485;49.386;8.674;2022-08-14T16:35:04;99202.50;;;35.51
18713;BMP280;9485;49.386;8.674;2022-08-14T16:40:26;99193.22;;;35.31
18713;BMP280;9485;49.386;8.674;2022-08-14T16:45:48;99185.38;;;35.11
18713;BMP280;9485;49.386;8.674;2022-08-14T16:51:10;99186.44;;;34.94
18713;BMP280;9485;49.386;8.674;2022-08-14T16:56:31;99185.97;;;34.76
18713;BMP280;9485;49.386;8.674;2022-08-14T17:01:56;99182.59;;;34.58
18713;BMP280;9485;49.386;8.674;2022-08-14T17:07:18;99179.94;;;34.42
18713;BMP280;9485;49.386;8.674;2022-08-14T17:12:38;99183.25;;;34.29
18713;BMP280;9485;49.386;8.674;2022-08-14T17:17:59;99171.91;;;34.16
18713;BMP280;9485;49.386;8.674;2022-08-14T17:23:21;99171.56;;;34.04
18713;BMP280;9485;49.386;8.674;2022-08-14T17:28:41;99166.88;;;33.93
18713;BMP280;9485;49.386;8.674;2022-08-14T17:34:03;99163.63;;;33.83
18713;BMP280;9485;49.386;8.674;2022-08-14T17:39:25;99169.91;;;33.71
18713;BMP280;9485;49.386;8.674;2022-08-14T17:44:45;99165.19;;;33.61
18713;BMP280;9485;49.386;8.674;2022-08-14T17:50:07;99157.41;;;33.46
18713;BMP280;9485;49.386;8.674;2022-08-14T17:55:30;99156.97;;;33.32
18713;BMP280;9485;49.386;8.674;2022-08-14T18:00:54;99160.72;;;33.11
18713;BMP280;9485;49.386;8.674;2022-08-14T18:06:16;99174.69;;;32.91
18713;BMP280;9485;49.386;8.674;2022-08-14T18:11:39;99170.22;;;32.67
18713;BMP280;9485;49.386;8.674;2022-08-14T18:17:01;99173.59;;;32.38
18713;BMP280;9485;49.386;8.674;2022-08-14T18:22:23;99185.09;;;32.12
18713;BMP280;9485;49.386;8.674;2022-08-14T18:27:48;99181.88;;;31.85
18713;BMP280;9485;49.386;8.674;2022-08-14T18:33:16;99179.41;;;31.58
18713;BMP280;9485;49.386;8.674;2022-08-14T18:38:36;99198.22;;;31.36
18713;BMP280;9485;49.386;8.674;2022-08-14T18:43:58;99193.94;;;31.20
18713;BMP280;9485;49.386;8.674;2022-08-14T18:49:19;99196.09;;;31.02
18713;BMP280;9485;49.386;8.674;2022-08-14T18:54:39;99200.34;;;30.81
18713;BMP280;9485;49.386;8.674;2022-08-14T19:00:43;99213.25;;;30.59
18713;BMP280;9485;49.386;8.674;2022-08-14T19:06:06;99205.03;;;30.38
18713;BMP280;9485;49.386;8.674;2022-08-14T19:11:45;99210.09;;;30.20
18713;BMP280;9485;49.386;8.674;2022-08-14T19:22:38;99216.91;;;29.94
18713;BMP280;9485;49.386;8.674;2022-08-14T19:28:14;99224.91;;;29.93
18713;BMP280;9485;49.386;8.674;2022-08-14T19:33:50;99237.06;;;29.90
18713;BMP280;9485;49.386;8.674;2022-08-14T19:39:13;99225.72;;;29.80
18713;BMP280;9485;49.386;8.674;2022-08-14T19:44:34;99239.91;;;29.72
18713;BMP280;9485;49.386;8.674;2022-08-14T19:49:55;99245.25;;;29.63
18713;BMP280;9485;49.386;8.674;2022-08-14T19:55:19;99240.56;;;29.56
18713;BMP280;9485;49.386;8.674;2022-08-14T20:00:40;99242.34;;;29.47
18713;BMP280;9485;49.386;8.674;2022-08-14T20:06:01;99251.06;;;29.47
18713;BMP280;9485;49.386;8.674;2022-08-14T20:11:27;99238.78;;;29.49
18713;BMP280;9485;49.386;8.674;2022-08-14T20:16:52;99251.34;;;29.53
18713;BMP280;9485;49.386;8.674;2022-08-14T20:22:13;99246.75;;;29.48
18713;BMP280;9485;49.386;8.674;2022-08-14T20:27:39;99263.25;;;29.44
18713;BMP280;9485;49.386;8.674;2022-08-14T20:33:03;99274.06;;;29.41
18713;BMP280;9485;49.386;8.674;2022-08-14T20:38:24;99264.47;;;29.39
18713;BMP280;9485;49.386;8.674;2022-08-14T20:43:49;99252.84;;;29.39
18713;BMP280;9485;49.386;8.674;2022-08-14T20:49:28;99265.78;;;29.36
18713;BMP280;9485;49.386;8.674;2022-08-14T20:54:52;99267.63;;;29.29
18713;BMP280;9485;49.386;8.674;2022-08-14T21:00:35;99278.31;;;29.25
18713;BMP280;9485;49.386;8.674;2022-08-14T21:06:02;99287.03;;;29.25
18713;BMP280;9485;49.386;8.674;2022-08-14T21:11:25;99288.22;;;29.20
18713;BMP280;9485;49.386;8.674;2022-08-14T21:16:47;99285.53;;;29.24
18713;BMP280;9485;49.386;8.674;2022-08-14T21:22:12;99285.44;;;29.22
18713;BMP280;9485;49.386;8.674;2022-08-14T21:27:33;99285.25;;;29.18
18713;BMP280;9485;49.386;8.674;2022-08-14T21:32:53;99285.03;;;29.14
18713;BMP280;9485;49.386;8.674;2022-08-14T21:38:15;99282.69;;;29.10
18713;BMP280;9485;49.386;8.674;2022-08-14T21:43:36;99284.44;;;29.02
18713;BMP280;9485;49.386;8.674;2022-08-14T21:48:56;99284.81;;;28.94
18713;BMP280;9485;49.386;8.674;2022-08-14T21:54:20;99281.56;;;28.89
18713;BMP280;9485;49.386;8.674;2022-08-14T21:59:43;99280.44;;;28.80
18713;BMP280;9485;49.386;8.674;2022-08-14T22:05:04;99279.38;;;28.74
18713;BMP280;9485;49.386;8.674;2022-08-14T22:10:26;99287.84;;;28.70
18713;BMP280;9485;49.386;8.674;2022-08-14T22:15:48;99291.84;;;28.63
18713;BMP280;9485;49.386;8.674;2022-08-14T22:21:09;99288.63;;;28.57
18713;BMP280;9485;49.386;8.674;2022-08-14T22:26:31;99288.53;;;28.55
18713;BMP280;9485;49.386;8.674;2022-08-14T22:31:52;99288.44;;;28.53
18713;BMP280;9485;49.386;8.674;2022-08-14T22:37:13;99294.88;;;28.51
18713;BMP280;9485;49.386;8.674;2022-08-14T22:42:35;99285.44;;;28.51
18713;BMP280;9485;49.386;8.674;2022-08-14T22:47:56;99294.03;;;28.49
18713;BMP280;9485;49.386;8.674;2022-08-14T22:53:17;99286.63;;;28.46
18713;BMP280;9485;49.386;8.674;2022-08-14T22:58:39;99297.28;;;28.41
18713;BMP280;9485;49.386;8.674;2022-08-14T23:04:00;99303.63;;;28.38
18713;BMP280;9485;49.386;8.674;2022-08-14T23:09:21;99296.09;;;28.33
18713;BMP280;9485;49.386;8.674;2022-08-14T23:14:43;99299.84;;;28.09
18713;BMP280;9485;49.386;8.674;2022-08-14T23:20:05;99304.88;;;27.95
18713;BMP280;9485;49.386;8.674;2022-08-14T23:25:30;99309.09;;;27.92
18713;BMP280;9485;49.386;8.674;2022-08-14T23:30:52;99306.94;;;27.92
18713;BMP280;9485;49.386;8.674;2022-08-14T23:36:14;99300.06;;;27.86
18713;BMP280;9485;49.386;8.674;2022-08-14T23:41:34;99298.31;;;27.81
18713;BMP280;9485;49.386;8.674;2022-08-14T23:46:57;99289.19;;;27.73
18713;BMP280;9485;49.386;8.674;2022-08-14T23:52:18;99285.66;;;27.74
18713;BMP280;9485;49.386;8.674;2022-08-14T23:57:40;99289.19;;;27.73
